createdAt,value
2017-10-24T00:00:27.075Z,19.90
2017-10-24T00:02:55.940Z,19.20
2017-10-24T00:05:24.812Z,19.83
2017-10-24T00:07:53.667Z,22.20
2017-10-24T00:10:22.540Z,20.50
2017-10-24T00:12:51.435Z,19.50
2017-10-24T00:15:20.328Z,18.70
2017-10-24T00:17:49.220Z,18.60
2017-10-24T00:20:18.117Z,19.17
2017-10-24T00:22:46.995Z,18.37
2017-10-24T00:25:15.855Z,18.67
2017-10-24T00:27:44.736Z,20.97
2017-10-24T00:30:13.593Z,20.30
2017-10-24T00:32:42.463Z,18.50
2017-10-24T00:35:11.316Z,18.43
2017-10-24T00:37:40.188Z,19.20
2017-10-24T00:40:09.071Z,16.93
2017-10-24T00:42:37.947Z,17.00
2017-10-24T00:45:06.807Z,17.90
2017-10-24T00:47:35.685Z,17.97
2017-10-24T00:50:04.545Z,17.70
2017-10-24T00:52:33.414Z,18.10
2017-10-24T00:55:02.310Z,18.23
2017-10-24T00:57:31.171Z,17.30
2017-10-24T01:00:00.055Z,18.87
2017-10-24T01:02:28.944Z,16.10
2017-10-24T01:04:57.827Z,18.20
2017-10-24T01:07:26.683Z,17.37
2017-10-24T01:09:55.555Z,16.40
2017-10-24T01:12:24.412Z,16.50
2017-10-24T01:14:53.287Z,15.70
2017-10-24T01:17:22.149Z,17.23
2017-10-24T01:19:51.019Z,16.93
2017-10-24T01:22:19.881Z,16.83
2017-10-24T01:24:48.761Z,17.93
2017-10-24T01:27:17.624Z,17.00
2017-10-24T01:29:46.486Z,17.20
2017-10-24T01:32:15.359Z,19.27
2017-10-24T01:34:44.216Z,18.13
2017-10-24T01:37:13.100Z,22.03
2017-10-24T01:39:41.959Z,20.93
2017-10-24T01:42:10.832Z,23.27
2017-10-24T01:44:39.690Z,19.40
2017-10-24T01:47:08.560Z,19.87
2017-10-24T01:49:37.425Z,19.77
2017-10-24T01:52:06.300Z,18.87
2017-10-24T01:54:35.173Z,19.20
2017-10-24T01:57:04.043Z,20.20
2017-10-24T01:59:32.900Z,18.57
2017-10-24T02:02:01.760Z,17.20
2017-10-24T02:04:30.635Z,17.97
2017-10-24T02:06:59.499Z,19.57
2017-10-24T02:09:28.380Z,25.37
2017-10-24T02:11:57.248Z,26.00
2017-10-24T02:14:26.128Z,26.60
2017-10-24T02:16:54.983Z,20.97
2017-10-24T02:19:23.875Z,28.43
2017-10-24T02:21:52.735Z,21.43
2017-10-24T02:24:21.611Z,21.00
2017-10-24T02:26:50.475Z,27.90
2017-10-24T02:29:19.371Z,27.07
2017-10-24T02:31:48.232Z,27.57
2017-10-24T02:34:17.122Z,16.93
2017-10-24T02:36:45.979Z,21.07
2017-10-24T02:39:14.842Z,36.57
2017-10-24T02:41:43.732Z,18.83
2017-10-24T02:44:12.597Z,21.30
2017-10-24T02:46:41.472Z,26.13
2017-10-24T02:49:08.996Z,41.27
2017-10-24T02:51:36.523Z,36.67
2017-10-24T02:54:04.036Z,19.50
2017-10-24T02:56:31.571Z,22.60
2017-10-24T02:58:59.080Z,18.77
2017-10-24T03:01:27.392Z,17.93
2017-10-24T03:03:54.902Z,16.70
2017-10-24T03:06:23.189Z,17.70
2017-10-24T03:08:51.481Z,20.27
2017-10-24T03:11:19.756Z,19.60
2017-10-24T03:13:48.100Z,19.73
2017-10-24T03:16:15.612Z,27.27
2017-10-24T03:18:43.140Z,18.60
2017-10-24T03:21:11.428Z,34.17
2017-10-24T03:23:39.712Z,22.50
2017-10-24T03:26:07.225Z,20.80
2017-10-24T03:28:34.758Z,26.67
2017-10-24T03:31:02.300Z,36.37
2017-10-24T03:33:29.803Z,30.53
2017-10-24T03:35:57.327Z,28.73
2017-10-24T03:38:24.836Z,34.03
2017-10-24T03:40:52.360Z,24.50
2017-10-24T03:43:19.880Z,53.27
2017-10-24T03:45:48.183Z,46.37
2017-10-24T03:48:15.695Z,37.47
2017-10-24T03:50:43.220Z,45.57
2017-10-24T03:53:10.740Z,32.83
2017-10-24T03:55:39.027Z,44.60
2017-10-24T03:58:06.552Z,35.83
2017-10-24T04:00:34.064Z,24.97
2017-10-24T04:03:01.595Z,29.67
2017-10-24T04:05:29.776Z,46.80
2017-10-24T04:07:57.311Z,32.90
2017-10-24T04:10:25.599Z,45.77
2017-10-24T04:12:53.896Z,28.80
2017-10-24T04:15:21.408Z,41.67
2017-10-24T04:17:48.937Z,42.03
2017-10-24T04:20:16.443Z,27.87
2017-10-24T04:22:43.964Z,24.50
2017-10-24T04:25:11.469Z,27.43
2017-10-24T04:27:39.754Z,26.00
2017-10-24T04:30:08.112Z,22.80
2017-10-24T04:32:35.624Z,26.27
2017-10-24T04:35:03.153Z,21.40
2017-10-24T04:37:31.429Z,20.93
2017-10-24T04:39:59.716Z,23.67
2017-10-24T04:42:27.232Z,24.10
2017-10-24T04:44:54.758Z,23.07
2017-10-24T04:47:22.264Z,29.10
2017-10-24T04:49:49.824Z,28.70
2017-10-24T04:52:17.334Z,31.50
2017-10-24T04:54:44.837Z,24.23
2017-10-24T04:57:12.370Z,34.10
2017-10-24T04:59:39.878Z,26.50
2017-10-24T05:02:08.168Z,21.80
2017-10-24T05:04:35.681Z,23.40
2017-10-24T05:07:03.203Z,21.67
2017-10-24T05:09:30.764Z,20.77
2017-10-24T05:11:58.294Z,23.10
2017-10-24T05:14:26.573Z,22.60
2017-10-24T05:16:54.873Z,21.40
2017-10-24T05:19:22.383Z,33.37
2017-10-24T05:21:49.892Z,29.70
2017-10-24T05:24:17.419Z,29.10
2017-10-24T05:26:45.705Z,20.90
2017-10-24T05:29:13.999Z,21.23
2017-10-24T05:31:41.517Z,34.27
2017-10-24T05:34:09.192Z,22.10
2017-10-24T05:36:37.477Z,25.23
2017-10-24T05:39:05.773Z,23.97
2017-10-24T05:41:33.283Z,25.97
2017-10-24T05:44:00.808Z,23.20
2017-10-24T05:46:29.307Z,21.30
2017-10-24T05:48:56.848Z,35.00
2017-10-24T05:51:24.354Z,37.20
2017-10-24T05:53:51.869Z,25.50
2017-10-24T05:56:19.397Z,28.00
2017-10-24T05:58:47.683Z,33.83
2017-10-24T06:01:15.251Z,29.93
2017-10-24T06:03:42.761Z,30.23
2017-10-24T06:06:10.296Z,28.70
2017-10-24T06:08:37.809Z,23.87
2017-10-24T06:11:06.100Z,28.80
2017-10-24T06:13:33.608Z,23.37
2017-10-24T06:16:01.138Z,20.97
2017-10-24T06:18:30.156Z,24.27
2017-10-24T06:20:57.665Z,23.00
2017-10-24T06:23:26.329Z,28.07
2017-10-24T06:25:53.841Z,28.37
2017-10-24T06:28:21.367Z,26.73
2017-10-24T06:30:49.636Z,24.00
2017-10-24T06:33:18.296Z,23.67
2017-10-24T06:35:45.805Z,26.07
2017-10-24T06:38:13.326Z,26.67
2017-10-24T06:40:42.757Z,22.10
2017-10-24T06:43:12.384Z,22.07
2017-10-24T06:45:40.744Z,26.40
2017-10-24T06:48:09.905Z,19.67
2017-10-24T06:50:40.179Z,22.13
2017-10-24T06:53:12.320Z,19.27
2017-10-24T06:55:45.699Z,15.90
2017-10-24T06:58:20.392Z,20.63
2017-10-24T07:00:55.814Z,17.20
2017-10-24T07:03:33.572Z,15.17
2017-10-24T07:06:11.664Z,19.40
2017-10-24T07:08:48.168Z,21.83
2017-10-24T07:11:20.986Z,16.10
2017-10-24T07:13:59.639Z,14.77
2017-10-24T07:16:38.036Z,15.53
2017-10-24T07:19:15.312Z,18.53
2017-10-24T07:21:55.353Z,15.30
2017-10-24T07:24:29.505Z,14.67
2017-10-24T07:26:58.366Z,16.07
2017-10-24T07:29:27.248Z,15.20
2017-10-24T07:31:56.115Z,16.23
2017-10-24T07:34:24.979Z,21.70
2017-10-24T07:36:53.856Z,18.10
2017-10-24T07:39:22.721Z,17.77
2017-10-24T07:41:51.599Z,14.17
2017-10-24T07:44:20.460Z,15.47
2017-10-24T07:46:49.331Z,17.57
2017-10-24T07:49:18.195Z,17.30
2017-10-24T07:51:47.071Z,16.97
2017-10-24T07:54:15.928Z,17.30
2017-10-24T07:56:44.804Z,20.50
2017-10-24T07:59:13.666Z,18.97
2017-10-24T08:01:42.548Z,15.80
2017-10-24T08:04:11.406Z,15.83
2017-10-24T08:06:40.304Z,17.90
2017-10-24T08:09:09.172Z,18.70
2017-10-24T08:11:38.032Z,18.07
2017-10-24T08:14:06.912Z,17.60
2017-10-24T08:16:35.768Z,18.47
2017-10-24T08:19:04.650Z,18.17
2017-10-24T08:21:33.511Z,18.40
2017-10-24T08:24:02.389Z,18.10
2017-10-24T08:26:31.258Z,24.50
2017-10-24T08:29:00.151Z,23.10
2017-10-24T08:31:29.019Z,17.60
2017-10-24T08:33:57.908Z,19.90
2017-10-24T08:36:26.780Z,21.80
2017-10-24T08:38:55.660Z,19.53
2017-10-24T08:41:24.520Z,18.40
2017-10-24T08:43:53.416Z,18.73
2017-10-24T08:46:22.302Z,18.67
2017-10-24T08:48:51.335Z,19.30
2017-10-24T08:51:18.864Z,17.47
2017-10-24T08:53:46.390Z,19.07
2017-10-24T08:56:13.926Z,17.40
2017-10-24T08:58:42.624Z,18.97
2017-10-24T09:01:11.950Z,18.07
2017-10-24T09:03:39.486Z,16.83
2017-10-24T09:06:24.117Z,18.93
2017-10-24T09:08:54.707Z,21.30
2017-10-24T09:14:39.599Z,19.40
2017-10-24T09:17:31.651Z,19.77
2017-10-24T09:19:59.997Z,18.00
2017-10-24T09:22:27.557Z,17.33
2017-10-24T09:24:55.081Z,16.07
2017-10-24T09:27:25.564Z,16.77
2017-10-24T09:29:56.552Z,16.70
2017-10-24T09:32:32.850Z,16.83
2017-10-24T09:35:06.097Z,17.20
2017-10-24T09:37:39.094Z,15.93
2017-10-24T09:40:10.232Z,16.00
2017-10-24T09:42:45.374Z,15.13
2017-10-24T09:45:20.391Z,15.13
2017-10-24T09:47:56.408Z,14.40
2017-10-24T09:50:32.084Z,15.60
2017-10-24T09:53:06.373Z,14.57
2017-10-24T09:55:50.760Z,14.07
2017-10-24T09:58:38.724Z,12.57
2017-10-24T10:01:16.327Z,15.87
2017-10-24T10:03:45.227Z,13.00
2017-10-24T10:06:19.850Z,14.67
2017-10-24T10:08:48.742Z,13.20
2017-10-24T10:11:23.415Z,13.67
2017-10-24T10:13:52.294Z,12.00
2017-10-24T10:16:21.156Z,11.17
2017-10-24T10:18:50.017Z,11.80
2017-10-24T10:21:18.888Z,12.40
2017-10-24T10:23:47.758Z,12.63
2017-10-24T10:26:16.647Z,11.93
2017-10-24T10:28:45.507Z,11.23
2017-10-24T10:31:14.382Z,11.90
2017-10-24T10:33:43.245Z,13.00
2017-10-24T10:36:12.128Z,14.70
2017-10-24T10:38:40.991Z,12.50
2017-10-24T10:41:09.907Z,12.30
2017-10-24T10:43:38.776Z,12.77
2017-10-24T10:46:07.635Z,10.97
2017-10-24T10:48:36.507Z,10.10
2017-10-24T10:51:05.364Z,11.20
2017-10-24T10:53:34.234Z,10.90
2017-10-24T10:56:03.092Z,10.97
2017-10-24T10:58:32.016Z,11.57
2017-10-24T11:01:00.872Z,11.07
2017-10-24T11:03:29.763Z,11.10
2017-10-24T11:05:58.625Z,11.07
2017-10-24T11:08:27.524Z,10.07
2017-10-24T11:10:56.384Z,10.40
2017-10-24T11:13:25.243Z,10.33
2017-10-24T11:15:54.168Z,8.17
2017-10-24T11:18:23.044Z,8.87
2017-10-24T11:20:51.915Z,9.10
2017-10-24T11:23:20.763Z,6.97
2017-10-24T11:25:49.631Z,7.00
2017-10-24T11:28:18.492Z,6.03
2017-10-24T11:30:47.359Z,7.50
2017-10-24T11:33:16.380Z,6.40
2017-10-24T11:35:45.248Z,6.33
2017-10-24T11:38:14.110Z,5.87
2017-10-24T11:40:42.986Z,6.23
2017-10-24T11:43:11.844Z,6.13
2017-10-24T11:45:40.740Z,6.10
2017-10-24T11:48:09.597Z,6.40
2017-10-24T11:50:38.447Z,6.50
2017-10-24T11:53:07.315Z,6.40
2017-10-24T11:55:36.184Z,7.60
2017-10-24T11:58:05.076Z,7.30
2017-10-24T12:00:33.931Z,7.00
2017-10-24T12:03:02.808Z,5.80
2017-10-24T12:05:31.655Z,5.70
2017-10-24T12:08:00.568Z,6.60
2017-10-24T12:10:29.432Z,6.93
2017-10-24T12:12:58.301Z,7.10
2017-10-24T12:15:27.214Z,6.10
2017-10-24T12:17:56.082Z,7.10
2017-10-24T12:20:24.936Z,7.17
2017-10-24T12:22:53.803Z,7.70
2017-10-24T12:25:22.660Z,7.10
2017-10-24T12:27:51.527Z,6.80
2017-10-24T12:30:20.372Z,6.40
2017-10-24T12:32:49.247Z,6.50
2017-10-24T12:35:18.097Z,5.90
2017-10-24T12:37:46.967Z,7.93
2017-10-24T12:40:15.819Z,8.13
2017-10-24T12:42:44.669Z,8.50
2017-10-24T12:45:16.203Z,9.37
2017-10-24T12:47:45.060Z,8.20
2017-10-24T12:50:14.452Z,8.00
2017-10-24T12:52:43.307Z,9.57
2017-10-24T12:55:12.172Z,8.53
2017-10-24T12:57:41.931Z,8.30
2017-10-24T13:00:10.931Z,7.73
2017-10-24T13:02:39.792Z,9.30
2017-10-24T13:05:12.173Z,8.50
2017-10-24T13:07:41.023Z,9.70
2017-10-24T13:10:09.888Z,8.10
2017-10-24T13:12:38.741Z,8.10
2017-10-24T13:15:07.615Z,7.13
2017-10-24T13:17:36.473Z,6.83
2017-10-24T13:20:05.344Z,7.87
2017-10-24T13:22:34.213Z,8.67
2017-10-24T13:25:03.086Z,8.77
2017-10-24T13:27:31.935Z,9.07
2017-10-24T13:30:00.807Z,8.00
2017-10-24T13:32:29.664Z,8.43
2017-10-24T13:34:58.531Z,9.70
2017-10-24T13:37:27.448Z,8.60
2017-10-24T13:39:56.321Z,8.47
2017-10-24T13:42:25.191Z,8.00
2017-10-24T13:44:54.049Z,7.90
2017-10-24T13:47:22.916Z,7.63
2017-10-24T13:49:51.776Z,8.53
2017-10-24T13:52:20.659Z,10.20
2017-10-24T13:54:49.517Z,7.80
2017-10-24T13:57:18.396Z,8.57
2017-10-24T13:59:47.256Z,8.23
2017-10-24T14:02:16.130Z,8.10
2017-10-24T14:04:50.795Z,8.30
2017-10-24T14:07:25.308Z,8.03
2017-10-24T14:09:59.807Z,7.70
2017-10-24T14:12:28.675Z,9.00
2017-10-24T14:14:57.542Z,9.07
2017-10-24T14:17:26.407Z,8.93
2017-10-24T14:19:55.256Z,9.50
2017-10-24T14:22:24.120Z,8.27
2017-10-24T14:24:52.975Z,9.07
2017-10-24T14:27:21.867Z,9.90
2017-10-24T14:29:50.756Z,10.27
2017-10-24T14:32:19.639Z,10.10
2017-10-24T14:34:48.511Z,11.80
2017-10-24T14:37:17.363Z,11.30
2017-10-24T14:39:46.246Z,11.60
2017-10-24T14:42:15.104Z,13.77
2017-10-24T14:44:43.979Z,12.67
2017-10-24T14:47:12.852Z,13.50
2017-10-24T14:49:41.732Z,12.33
2017-10-24T14:52:10.588Z,12.90
2017-10-24T14:54:39.455Z,13.13
2017-10-24T14:57:08.307Z,14.07
2017-10-24T14:59:37.180Z,12.67
2017-10-24T15:02:06.044Z,13.57
2017-10-24T15:04:34.944Z,14.90
2017-10-24T15:07:03.808Z,15.00
2017-10-24T15:09:32.666Z,14.73
2017-10-24T15:12:01.540Z,15.17
2017-10-24T15:14:30.395Z,14.03
2017-10-24T15:16:59.268Z,16.03
2017-10-24T15:19:28.128Z,17.00
2017-10-24T15:21:57.004Z,16.10
2017-10-24T15:24:25.860Z,16.83
2017-10-24T15:26:54.741Z,16.20
2017-10-24T15:29:23.596Z,16.33
2017-10-24T15:31:52.463Z,17.10
2017-10-24T15:34:21.325Z,17.57
2017-10-24T15:36:50.201Z,18.00
2017-10-24T15:39:19.064Z,17.80
2017-10-24T15:41:47.940Z,16.83
2017-10-24T15:44:16.793Z,16.70
2017-10-24T15:46:45.684Z,18.33
2017-10-24T15:49:14.548Z,17.83
2017-10-24T15:51:43.407Z,19.33
2017-10-24T15:54:12.280Z,18.07
2017-10-24T15:56:41.138Z,19.57
2017-10-24T15:59:10.017Z,19.00
2017-10-24T16:01:38.880Z,18.47
2017-10-24T16:04:07.770Z,15.47
2017-10-24T16:06:36.632Z,17.57
2017-10-24T16:09:05.503Z,17.03
2017-10-24T16:11:34.364Z,16.50
2017-10-24T16:14:03.238Z,18.60
2017-10-24T16:16:32.100Z,18.47
2017-10-24T16:19:00.979Z,17.90
2017-10-24T16:21:29.835Z,17.63
2017-10-24T16:23:58.708Z,17.10
2017-10-24T16:26:27.559Z,16.40
2017-10-24T16:28:56.443Z,16.63
2017-10-24T16:31:25.317Z,17.17
2017-10-24T16:33:54.216Z,17.73
2017-10-24T16:36:23.071Z,14.93
2017-10-24T16:38:51.928Z,17.10
2017-10-24T16:41:20.808Z,17.27
2017-10-24T16:43:49.671Z,16.33
2017-10-24T16:46:18.551Z,16.17
2017-10-24T16:48:47.412Z,17.47
2017-10-24T16:51:16.287Z,16.47
2017-10-24T16:53:45.150Z,15.73
2017-10-24T16:56:14.029Z,15.47
2017-10-24T16:58:42.893Z,16.80
2017-10-24T17:01:11.763Z,16.70
2017-10-24T17:03:40.616Z,16.30
2017-10-24T17:06:09.483Z,15.67
2017-10-24T17:08:38.343Z,14.70
2017-10-24T17:11:07.228Z,15.00
2017-10-24T17:13:36.090Z,15.10
2017-10-24T17:16:04.967Z,13.43
2017-10-24T17:18:33.828Z,14.60
2017-10-24T17:21:02.709Z,15.70
2017-10-24T17:23:31.568Z,14.97
2017-10-24T17:26:00.432Z,15.23
2017-10-24T17:28:29.313Z,15.03
2017-10-24T17:30:58.173Z,14.20
2017-10-24T17:33:27.048Z,13.87
2017-10-24T17:35:55.909Z,15.37
2017-10-24T17:38:24.793Z,14.43
2017-10-24T17:40:53.655Z,15.60
2017-10-24T17:43:22.532Z,16.50
2017-10-24T17:45:51.393Z,15.70
2017-10-24T17:48:20.264Z,14.33
2017-10-24T17:50:49.119Z,11.43
2017-10-24T17:53:17.996Z,14.03
2017-10-24T17:55:46.857Z,16.17
2017-10-24T17:58:15.728Z,14.20
2017-10-24T18:00:44.601Z,15.23
2017-10-24T18:03:13.485Z,12.63
2017-10-24T18:05:42.345Z,16.07
2017-10-24T18:08:11.270Z,15.83
2017-10-24T18:10:40.124Z,13.60
2017-10-24T18:13:09.000Z,14.70
2017-10-24T18:15:37.885Z,15.63
2017-10-24T18:18:06.760Z,13.93
2017-10-24T18:20:35.630Z,14.73
2017-10-24T18:23:04.506Z,14.40
2017-10-24T18:25:33.405Z,15.03
2017-10-24T18:28:02.272Z,14.97
2017-10-24T18:30:31.148Z,14.03
2017-10-24T18:33:00.013Z,13.87
2017-10-24T18:35:28.924Z,13.93
2017-10-24T18:37:57.792Z,12.57
2017-10-24T18:40:26.680Z,14.33
2017-10-24T18:42:55.546Z,13.77
2017-10-24T18:45:24.424Z,13.30
2017-10-24T18:47:53.279Z,13.23
2017-10-24T18:50:22.175Z,16.40
2017-10-24T18:52:51.035Z,12.93
2017-10-24T18:55:19.899Z,12.83
2017-10-24T18:57:48.773Z,12.87
2017-10-24T19:00:17.637Z,13.03
2017-10-24T19:02:46.523Z,12.90
2017-10-24T19:05:15.390Z,11.77
2017-10-24T19:07:44.269Z,12.80
2017-10-24T19:10:13.132Z,14.03
2017-10-24T19:12:42.013Z,12.20
2017-10-24T19:15:10.892Z,12.10
2017-10-24T19:17:39.775Z,11.30
2017-10-24T19:20:08.631Z,11.80
2017-10-24T19:22:37.521Z,11.77
2017-10-24T19:25:06.383Z,11.43
2017-10-24T19:27:35.255Z,10.23
2017-10-24T19:30:04.115Z,10.90
2017-10-24T19:32:32.988Z,11.50
2017-10-24T19:35:01.848Z,10.73
2017-10-24T19:37:30.719Z,10.13
2017-10-24T19:39:59.585Z,10.07
2017-10-24T19:42:28.460Z,9.50
2017-10-24T19:44:57.360Z,10.00
2017-10-24T19:47:26.252Z,10.23
2017-10-24T19:49:55.144Z,9.97
2017-10-24T19:52:24.056Z,9.37
2017-10-24T19:54:52.909Z,9.17
2017-10-24T19:57:21.775Z,9.27
2017-10-24T19:59:50.668Z,8.87
2017-10-24T20:02:19.524Z,8.00
2017-10-24T20:04:48.449Z,8.17
2017-10-24T20:07:17.295Z,8.50
2017-10-24T20:09:46.179Z,8.07
2017-10-24T20:12:15.032Z,8.30
2017-10-24T20:14:43.904Z,8.13
2017-10-24T20:17:12.760Z,8.70
2017-10-24T20:19:41.627Z,7.40
2017-10-24T20:22:10.488Z,6.93
2017-10-24T20:24:39.365Z,8.63
2017-10-24T20:27:08.233Z,7.00
2017-10-24T20:29:37.124Z,7.90
2017-10-24T20:32:05.971Z,6.50
2017-10-24T20:34:34.824Z,7.30
2017-10-24T20:37:03.688Z,6.60
2017-10-24T20:39:32.552Z,6.90
2017-10-24T20:42:01.419Z,8.00
2017-10-24T20:44:30.272Z,8.60
2017-10-24T20:46:59.143Z,7.70
2017-10-24T20:49:27.987Z,7.20
2017-10-24T20:51:56.860Z,8.30
2017-10-24T20:54:25.706Z,8.00
2017-10-24T20:56:54.571Z,7.10
2017-10-24T20:59:23.419Z,6.67
2017-10-24T21:01:52.288Z,7.47
2017-10-24T21:04:21.140Z,7.40
2017-10-24T21:06:50.004Z,7.10
2017-10-24T21:09:18.856Z,8.00
2017-10-24T21:11:47.726Z,7.87
2017-10-24T21:14:16.575Z,8.20
2017-10-24T21:16:45.427Z,7.53
2017-10-24T21:19:14.287Z,8.67
2017-10-24T21:21:43.135Z,7.63
2017-10-24T21:24:12.008Z,6.63
2017-10-24T21:26:40.860Z,6.50
2017-10-24T21:29:09.724Z,7.03
2017-10-24T21:31:38.585Z,6.13
2017-10-24T21:34:07.451Z,7.70
2017-10-24T21:36:36.320Z,6.80
2017-10-24T21:39:05.196Z,6.40
2017-10-24T21:41:34.061Z,7.87
2017-10-24T21:44:02.944Z,6.07
2017-10-24T21:46:31.795Z,6.80
2017-10-24T21:49:00.668Z,6.00
2017-10-24T21:51:29.522Z,7.03
2017-10-24T21:53:58.412Z,7.00
2017-10-24T21:56:27.263Z,6.83
2017-10-24T21:58:56.118Z,5.60
2017-10-24T22:01:24.975Z,6.80
2017-10-24T22:03:53.820Z,7.80
2017-10-24T22:06:22.697Z,7.43
2017-10-24T22:08:51.547Z,6.60
2017-10-24T22:11:20.417Z,7.30
2017-10-24T22:13:49.283Z,6.37
2017-10-24T22:16:18.146Z,6.10
2017-10-24T22:18:47.004Z,6.53
2017-10-24T22:21:15.871Z,7.20
2017-10-24T22:23:44.724Z,7.43
2017-10-24T22:26:13.595Z,6.70
2017-10-24T22:28:42.444Z,7.40
2017-10-24T22:31:11.314Z,7.30
2017-10-24T22:33:40.172Z,8.20
2017-10-24T22:36:09.048Z,7.17
2017-10-24T22:38:37.904Z,9.27
2017-10-24T22:41:06.767Z,8.87
2017-10-24T22:43:35.635Z,8.80
2017-10-24T22:46:04.488Z,8.43
2017-10-24T22:48:33.351Z,8.03
2017-10-24T22:51:02.204Z,9.60
2017-10-24T22:53:31.084Z,8.97
2017-10-24T22:55:59.940Z,9.20
2017-10-24T22:58:28.811Z,8.87
2017-10-24T23:00:57.660Z,8.93
2017-10-24T23:03:26.533Z,8.97
2017-10-24T23:05:55.388Z,9.40
2017-10-24T23:08:24.257Z,8.97
2017-10-24T23:10:53.108Z,8.03
2017-10-24T23:13:21.984Z,9.07
2017-10-24T23:15:50.848Z,9.63
2017-10-24T23:18:19.719Z,8.40
2017-10-24T23:20:48.575Z,8.53
2017-10-24T23:23:17.484Z,10.07
2017-10-24T23:25:46.339Z,10.87
2017-10-24T23:28:15.220Z,10.80
2017-10-24T23:30:44.081Z,12.27
2017-10-24T23:33:12.953Z,10.27
2017-10-24T23:35:41.808Z,13.40
2017-10-24T23:38:10.680Z,11.67
2017-10-24T23:40:39.537Z,11.90
2017-10-24T23:43:08.416Z,14.73
2017-10-24T23:45:37.283Z,11.90
2017-10-24T23:48:06.147Z,12.20
2017-10-24T23:50:35.018Z,14.00
2017-10-24T23:53:03.876Z,16.07
2017-10-24T23:55:32.753Z,17.57
2017-10-24T23:58:01.620Z,14.83
